Terminal Aerodrome Forecast
Issued by NWS

Current Version | Previous Version | Text Only | Print | Product List | Glossary On
Versions: 1 2 3 4 5 6 7 8 9 10 11 12 13 14
000
FTUS42 KMLB 311700
TAFFPR
TAF
KFPR 311736Z 3118/0118 29011KT P6SM SCT035
     FM010000 28005KT P6SM FEW030
     FM011300 28012G19KT P6SM SKC
     FM011500 29016G24KT P6SM SKC=

USA.gov is the U.S. government's official web portal to all federal, state and local government web resources and services.